M/V Bugra Tomba — TCEJ — position and weather

sailwx.info

Track history (hours):
 
Tides and Currents Weather Stations Pressure Air Temp Water Temp Dewpoint Dewpoint Depression Visibility Wind Speed Wind Dir Waves Ship Positions

M/V Bugra Tomba

Last reported at 2015-Jul-03 04:32 UTC. Time now 2015-Jul-03 06:13 UTC.
Position N 46°50' E 031°57'.

Length 99 m; draft 3.8 m.

Type: Cargo ship. MMSI: 271000025.

Date/timePositionNaut miles runAvg speedWind from/ knotsBaromVisibWave heightAir tempDewpointWater temp
2015-Jul-03 04:32N 46°50' E 031°57'0 0.0
2015-Jul-03 03:29N 46°50' E 031°57'0 0.0
2015-Jul-03 02:32N 46°50' E 031°57'0 0.0
2015-Jul-03 01:32N 46°50' E 031°57'0 0.0
2015-Jul-03 00:26N 46°50' E 031°57'0 0.0
2015-Jul-02 23:29N 46°50' E 031°57'0 0.0
2015-Jul-02 22:32N 46°50' E 031°57'0 0.0
2015-Jul-02 21:32N 46°50' E 031°57'0 0.0
2015-Jul-02 20:32N 46°50' E 031°57'0 0.0
2015-Jul-02 19:32N 46°50' E 031°57'0 0.0
2015-Jul-02 18:32N 46°50' E 031°57'0 0.0
2015-Jul-02 17:32N 46°50' E 031°57'0 0.0
2015-Jul-02 16:32N 46°50' E 031°57'0 0.0
2015-Jul-02 15:32N 46°50' E 031°57'0 0.0
2015-Jul-02 14:29N 46°50' E 031°57'0 0.0
2015-Jul-02 13:32N 46°50' E 031°57'0 0.0
2015-Jul-02 12:32N 46°50' E 031°57'0 0.0
2015-Jul-02 11:32N 46°50' E 031°57'0 0.0
2015-Jul-02 10:32N 46°50' E 031°57'0 0.0
2015-Jul-02 09:32N 46°50' E 031°57'0 0.0
2015-Jul-02 08:32N 46°50' E 031°57'0 0.0
2015-Jul-02 07:32N 46°50' E 031°57'0 0.0
2015-Jul-02 06:32N 46°50' E 031°57'0 0.0
2015-Jul-02 05:32N 46°50' E 031°57'0 0.0
2015-Jul-02 04:32N 46°50' E 031°57'0 0.0
2015-Jul-02 03:32N 46°50' E 031°57'0 0.0
2015-Jul-02 02:32N 46°50' E 031°57'0 0.0
2015-Jul-02 01:32N 46°50' E 031°57'0 0.0
2015-Jul-02 00:32N 46°50' E 031°57'0 0.0
2015-Jul-01 23:32N 46°50' E 031°57'0 0.0
2015-Jul-01 22:32N 46°50' E 031°57'0 0.0
2015-Jul-01 21:32N 46°50' E 031°57'0 0.0
2015-Jul-01 20:32N 46°50' E 031°57'0 0.0
2015-Jul-01 19:32N 46°50' E 031°57'0 0.0
2015-Jul-01 18:32N 46°50' E 031°57'1 1.0
2015-Jul-01 17:34N 46°50' E 031°56'7 7.1
2015-Jul-01 16:33N 46°43' E 031°56'9 9.3
2015-Jul-01 15:33N 46°36' E 031°48'1110.6
2015-Jul-01 14:33N 46°35' E 031°32'353 9.5
2015-Jun-30 01:33N 40°59' E 028°60'3 2.9
2015-Jun-30 00:30N 40°59' E 028°56'0 0.0
2015-Jun-29 21:12N 40°59' E 028°56'0 0.0
2015-Jun-29 20:30N 40°59' E 028°56'0 0.0
2015-Jun-29 19:18N 40°59' E 028°56'0 0.0
2015-Jun-29 18:30N 40°59' E 028°56'4 3.7
2015-Jun-29 17:32N 40°57' E 028°60'9 9.4
2015-Jun-29 16:33N 40°53' E 029°11'0 0.0
2015-Jun-29 15:27N 40°53' E 029°11'5 5.4
2015-Jun-29 14:33N 40°51' E 029°17'0 0.1
2015-Jun-29 12:18N 40°50' E 029°16'0 0.0
2015-Jun-29 10:30N 40°50' E 029°16'0 0.0
2015-Jun-29 09:30N 40°50' E 029°16'0 0.0
2015-Jun-29 08:30N 40°50' E 029°16'0 0.0
2015-Jun-29 07:30N 40°50' E 029°16'0 0.0
2015-Jun-29 06:18N 40°50' E 029°16'0 0.0
2015-Jun-29 05:30N 40°50' E 029°16'0 0.0
2015-Jun-29 04:18N 40°50' E 029°16'0 0.0
2015-Jun-29 03:18N 40°50' E 029°16'0 0.0
2015-Jun-29 02:30N 40°50' E 029°16'0 0.0
2015-Jun-29 01:24N 40°50' E 029°16'0 0.0
2015-Jun-28 23:30N 40°50' E 029°16'0 0.0
2015-Jun-28 21:18N 40°50' E 029°16'0 0.0
2015-Jun-28 19:30N 40°50' E 029°16'0 0.0
2015-Jun-28 18:18N 40°50' E 029°16'0 0.0
2015-Jun-28 17:24N 40°50' E 029°16'0 0.0
2015-Jun-28 16:30N 40°50' E 029°16'0 0.0
2015-Jun-28 15:30N 40°50' E 029°16'0 0.0
2015-Jun-28 13:24N 40°50' E 029°16'0 0.0
2015-Jun-28 11:30N 40°50' E 029°16'0 0.0
2015-Jun-28 09:18N 40°50' E 029°16'0 0.0
2015-Jun-28 08:06N 40°50' E 029°16'0 0.0
2015-Jun-28 07:18N 40°50' E 029°16'0 0.0
2015-Jun-28 06:30N 40°50' E 029°16'0 0.0
2015-Jun-28 05:30N 40°50' E 029°16'0 0.0
2015-Jun-28 04:18N 40°50' E 029°16'0 0.0
2015-Jun-28 03:18N 40°50' E 029°16'0 0.0
2015-Jun-28 02:30N 40°50' E 029°16'0 0.0
2015-Jun-28 01:18N 40°50' E 029°16'0 0.0
2015-Jun-28 00:30N 40°50' E 029°16'0 0.0
2015-Jun-27 23:30N 40°50' E 029°16'0 0.0
2015-Jun-27 21:30N 40°50' E 029°16'0 0.0
2015-Jun-27 20:24N 40°50' E 029°16'0 0.0
2015-Jun-27 18:18N 40°50' E 029°16'0 0.0
2015-Jun-27 17:30N 40°50' E 029°16'0 0.0
2015-Jun-27 16:12N 40°50' E 029°16'0 0.0
2015-Jun-27 15:30N 40°50' E 029°16'0 0.0
2015-Jun-27 14:12N 40°50' E 029°16'0 0.0
2015-Jun-27 13:24N 40°50' E 029°16'0 0.0
2015-Jun-27 12:30N 40°50' E 029°16'0 0.0
2015-Jun-27 11:30N 40°50' E 029°16'0 0.0
2015-Jun-27 10:24N 40°50' E 029°16'0 0.0
2015-Jun-27 09:12N 40°50' E 029°16'0 0.0
2015-Jun-27 08:30N 40°50' E 029°16'0 0.0
2015-Jun-27 07:30N 40°50' E 029°16'0 0.0
2015-Jun-26 16:18N 40°50' E 029°16'0 0.0
2015-Jun-26 15:30N 40°50' E 029°16'0 0.0
2015-Jun-26 14:18N 40°50' E 029°16'0 0.0
2015-Jun-26 12:18N 40°51' E 029°16'0 0.0
2015-Jun-26 11:24N 40°50' E 029°16'0 0.0
2015-Jun-26 10:24N 40°50' E 029°16'0 0.0
2015-Jun-26 09:30N 40°50' E 029°16'0 0.0
2015-Jun-26 08:30N 40°50' E 029°16'0 0.0
2015-Jun-26 07:24N 40°50' E 029°16'0 0.0
2015-Jun-26 06:30N 40°50' E 029°16'0 0.0
2015-Jun-26 05:30N 40°50' E 029°16'0 0.0
2015-Jun-25 17:04N 40°50' E 029°16'0 0.0
2015-Jun-25 16:28N 40°50' E 029°16'0 0.0
2015-Jun-25 15:16N 40°50' E 029°16'0 0.0
2015-Jun-25 14:22N 40°50' E 029°16'0 0.0
2015-Jun-25 13:28N 40°50' E 029°16'0 0.0
2015-Jun-25 12:23N 40°50' E 029°16'0 0.0
2015-Jun-25 11:23N 40°50' E 029°16'0 0.0
2015-Jun-25 10:23N 40°50' E 029°16'0 0.0
2015-Jun-25 09:29N 40°50' E 029°16'0 0.0
2015-Jun-25 08:23N 40°50' E 029°16'0 0.0
2015-Jun-25 07:29N 40°50' E 029°16'0 0.0
2015-Jun-25 05:17N 40°50' E 029°16'0 0.0
2015-Jun-25 03:05N 40°50' E 029°16'0 0.0
2015-Jun-25 02:29N 40°50' E 029°16'0 0.0
2015-Jun-25 00:17N 40°50' E 029°16'0 0.0
2015-Jun-24 23:29N 40°50' E 029°16'0 0.0
2015-Jun-24 21:29N 40°50' E 029°16'0 0.0
2015-Jun-24 20:23N 40°50' E 029°16'0 0.0
2015-Jun-24 19:29N 40°50' E 029°16'0 0.0
2015-Jun-24 18:29N 40°50' E 029°16'0 0.0
2015-Jun-24 17:23N 40°50' E 029°16'0 0.0
2015-Jun-24 16:23N 40°50' E 029°16'0 0.0
2015-Jun-24 15:23N 40°50' E 029°16'0 0.0
2015-Jun-24 14:11N 40°50' E 029°16'0 0.0
2015-Jun-24 13:23N 40°51' E 029°16'0 0.0
2015-Jun-24 12:05N 40°50' E 029°16'0 0.0
2015-Jun-24 11:29N 40°50' E 029°16'0 0.0
2015-Jun-24 10:23N 40°50' E 029°16'0 0.0
2015-Jun-24 08:17N 40°50' E 029°16'0 0.0
2015-Jun-24 07:29N 40°50' E 029°16'0 0.0
2015-Jun-24 03:23N 40°50' E 029°16'0 0.0
2015-Jun-24 02:17N 40°50' E 029°16'0 0.0
2015-Jun-24 01:17N 40°50' E 029°16'0 0.0
2015-Jun-24 00:29N 40°50' E 029°16'0 0.0
2015-Jun-23 22:29N 40°50' E 029°16'0 0.0
2015-Jun-23 20:29N 40°50' E 029°16'0 0.0
2015-Jun-23 18:47N 40°50' E 029°16'  
Track history (hours):
 
Tides and Currents Weather Stations Pressure Air Temp Water Temp Dewpoint Dewpoint Depression Visibility Wind Speed Wind Dir Waves Ship Positions

M/V Bugra Tomba

Last reported at 2015-Jul-03 04:32 UTC. Time now 2015-Jul-03 06:13 UTC.
Position N 46°50' E 031°57'.

Length 99 m; draft 3.8 m.

Type: Cargo ship. MMSI: 271000025.

Date/timePositionNaut miles runAvg speedWind from/ knotsBaromVisibWave heightAir tempDewpointWater temp
2015-Jul-03 04:32N 46°50' E 031°57'0 0.0
2015-Jul-03 03:29N 46°50' E 031°57'0 0.0
2015-Jul-03 02:32N 46°50' E 031°57'0 0.0
2015-Jul-03 01:32N 46°50' E 031°57'0 0.0
2015-Jul-03 00:26N 46°50' E 031°57'0 0.0
2015-Jul-02 23:29N 46°50' E 031°57'0 0.0
2015-Jul-02 22:32N 46°50' E 031°57'0 0.0
2015-Jul-02 21:32N 46°50' E 031°57'0 0.0
2015-Jul-02 20:32N 46°50' E 031°57'0 0.0
2015-Jul-02 19:32N 46°50' E 031°57'0 0.0
2015-Jul-02 18:32N 46°50' E 031°57'0 0.0
2015-Jul-02 17:32N 46°50' E 031°57'0 0.0
2015-Jul-02 16:32N 46°50' E 031°57'0 0.0
2015-Jul-02 15:32N 46°50' E 031°57'0 0.0
2015-Jul-02 14:29N 46°50' E 031°57'0 0.0
2015-Jul-02 13:32N 46°50' E 031°57'0 0.0
2015-Jul-02 12:32N 46°50' E 031°57'0 0.0
2015-Jul-02 11:32N 46°50' E 031°57'0 0.0
2015-Jul-02 10:32N 46°50' E 031°57'0 0.0
2015-Jul-02 09:32N 46°50' E 031°57'0 0.0
2015-Jul-02 08:32N 46°50' E 031°57'0 0.0
2015-Jul-02 07:32N 46°50' E 031°57'0 0.0
2015-Jul-02 06:32N 46°50' E 031°57'0 0.0
2015-Jul-02 05:32N 46°50' E 031°57'0 0.0
2015-Jul-02 04:32N 46°50' E 031°57'0 0.0
2015-Jul-02 03:32N 46°50' E 031°57'0 0.0
2015-Jul-02 02:32N 46°50' E 031°57'0 0.0
2015-Jul-02 01:32N 46°50' E 031°57'0 0.0
2015-Jul-02 00:32N 46°50' E 031°57'0 0.0
2015-Jul-01 23:32N 46°50' E 031°57'0 0.0
2015-Jul-01 22:32N 46°50' E 031°57'0 0.0
2015-Jul-01 21:32N 46°50' E 031°57'0 0.0
2015-Jul-01 20:32N 46°50' E 031°57'0 0.0
2015-Jul-01 19:32N 46°50' E 031°57'0 0.0
2015-Jul-01 18:32N 46°50' E 031°57'1 1.0
2015-Jul-01 17:34N 46°50' E 031°56'7 7.1
2015-Jul-01 16:33N 46°43' E 031°56'9 9.3
2015-Jul-01 15:33N 46°36' E 031°48'1110.6
2015-Jul-01 14:33N 46°35' E 031°32'353 9.5
2015-Jun-30 01:33N 40°59' E 028°60'3 2.9
2015-Jun-30 00:30N 40°59' E 028°56'0 0.0
2015-Jun-29 21:12N 40°59' E 028°56'0 0.0
2015-Jun-29 20:30N 40°59' E 028°56'0 0.0
2015-Jun-29 19:18N 40°59' E 028°56'0 0.0
2015-Jun-29 18:30N 40°59' E 028°56'4 3.7
2015-Jun-29 17:32N 40°57' E 028°60'9 9.4
2015-Jun-29 16:33N 40°53' E 029°11'0 0.0
2015-Jun-29 15:27N 40°53' E 029°11'5 5.4
2015-Jun-29 14:33N 40°51' E 029°17'0 0.1
2015-Jun-29 12:18N 40°50' E 029°16'0 0.0
2015-Jun-29 10:30N 40°50' E 029°16'0 0.0
2015-Jun-29 09:30N 40°50' E 029°16'0 0.0
2015-Jun-29 08:30N 40°50' E 029°16'0 0.0
2015-Jun-29 07:30N 40°50' E 029°16'0 0.0
2015-Jun-29 06:18N 40°50' E 029°16'0 0.0
2015-Jun-29 05:30N 40°50' E 029°16'0 0.0
2015-Jun-29 04:18N 40°50' E 029°16'0 0.0
2015-Jun-29 03:18N 40°50' E 029°16'0 0.0
2015-Jun-29 02:30N 40°50' E 029°16'0 0.0
2015-Jun-29 01:24N 40°50' E 029°16'0 0.0
2015-Jun-28 23:30N 40°50' E 029°16'0 0.0
2015-Jun-28 21:18N 40°50' E 029°16'0 0.0
2015-Jun-28 19:30N 40°50' E 029°16'0 0.0
2015-Jun-28 18:18N 40°50' E 029°16'0 0.0
2015-Jun-28 17:24N 40°50' E 029°16'0 0.0
2015-Jun-28 16:30N 40°50' E 029°16'0 0.0
2015-Jun-28 15:30N 40°50' E 029°16'0 0.0
2015-Jun-28 13:24N 40°50' E 029°16'0 0.0
2015-Jun-28 11:30N 40°50' E 029°16'0 0.0
2015-Jun-28 09:18N 40°50' E 029°16'0 0.0
2015-Jun-28 08:06N 40°50' E 029°16'0 0.0
2015-Jun-28 07:18N 40°50' E 029°16'0 0.0
2015-Jun-28 06:30N 40°50' E 029°16'0 0.0
2015-Jun-28 05:30N 40°50' E 029°16'0 0.0
2015-Jun-28 04:18N 40°50' E 029°16'0 0.0
2015-Jun-28 03:18N 40°50' E 029°16'0 0.0
2015-Jun-28 02:30N 40°50' E 029°16'0 0.0
2015-Jun-28 01:18N 40°50' E 029°16'0 0.0
2015-Jun-28 00:30N 40°50' E 029°16'0 0.0
2015-Jun-27 23:30N 40°50' E 029°16'0 0.0
2015-Jun-27 21:30N 40°50' E 029°16'0 0.0
2015-Jun-27 20:24N 40°50' E 029°16'0 0.0
2015-Jun-27 18:18N 40°50' E 029°16'0 0.0
2015-Jun-27 17:30N 40°50' E 029°16'0 0.0
2015-Jun-27 16:12N 40°50' E 029°16'0 0.0
2015-Jun-27 15:30N 40°50' E 029°16'0 0.0
2015-Jun-27 14:12N 40°50' E 029°16'0 0.0
2015-Jun-27 13:24N 40°50' E 029°16'0 0.0
2015-Jun-27 12:30N 40°50' E 029°16'0 0.0
2015-Jun-27 11:30N 40°50' E 029°16'0 0.0
2015-Jun-27 10:24N 40°50' E 029°16'0 0.0
2015-Jun-27 09:12N 40°50' E 029°16'0 0.0
2015-Jun-27 08:30N 40°50' E 029°16'0 0.0
2015-Jun-27 07:30N 40°50' E 029°16'0 0.0
2015-Jun-26 16:18N 40°50' E 029°16'0 0.0
2015-Jun-26 15:30N 40°50' E 029°16'0 0.0
2015-Jun-26 14:18N 40°50' E 029°16'0 0.0
2015-Jun-26 12:18N 40°51' E 029°16'0 0.0
2015-Jun-26 11:24N 40°50' E 029°16'0 0.0
2015-Jun-26 10:24N 40°50' E 029°16'0 0.0
2015-Jun-26 09:30N 40°50' E 029°16'0 0.0
2015-Jun-26 08:30N 40°50' E 029°16'0 0.0
2015-Jun-26 07:24N 40°50' E 029°16'0 0.0
2015-Jun-26 06:30N 40°50' E 029°16'0 0.0
2015-Jun-26 05:30N 40°50' E 029°16'0 0.0
2015-Jun-25 17:04N 40°50' E 029°16'0 0.0
2015-Jun-25 16:28N 40°50' E 029°16'0 0.0
2015-Jun-25 15:16N 40°50' E 029°16'0 0.0
2015-Jun-25 14:22N 40°50' E 029°16'0 0.0
2015-Jun-25 13:28N 40°50' E 029°16'0 0.0
2015-Jun-25 12:23N 40°50' E 029°16'0 0.0
2015-Jun-25 11:23N 40°50' E 029°16'0 0.0
2015-Jun-25 10:23N 40°50' E 029°16'0 0.0
2015-Jun-25 09:29N 40°50' E 029°16'0 0.0
2015-Jun-25 08:23N 40°50' E 029°16'0 0.0
2015-Jun-25 07:29N 40°50' E 029°16'0 0.0
2015-Jun-25 05:17N 40°50' E 029°16'0 0.0
2015-Jun-25 03:05N 40°50' E 029°16'0 0.0
2015-Jun-25 02:29N 40°50' E 029°16'0 0.0
2015-Jun-25 00:17N 40°50' E 029°16'0 0.0
2015-Jun-24 23:29N 40°50' E 029°16'0 0.0
2015-Jun-24 21:29N 40°50' E 029°16'0 0.0
2015-Jun-24 20:23N 40°50' E 029°16'0 0.0
2015-Jun-24 19:29N 40°50' E 029°16'0 0.0
2015-Jun-24 18:29N 40°50' E 029°16'0 0.0
2015-Jun-24 17:23N 40°50' E 029°16'0 0.0
2015-Jun-24 16:23N 40°50' E 029°16'0 0.0
2015-Jun-24 15:23N 40°50' E 029°16'0 0.0
2015-Jun-24 14:11N 40°50' E 029°16'0 0.0
2015-Jun-24 13:23N 40°51' E 029°16'0 0.0
2015-Jun-24 12:05N 40°50' E 029°16'0 0.0
2015-Jun-24 11:29N 40°50' E 029°16'0 0.0
2015-Jun-24 10:23N 40°50' E 029°16'0 0.0
2015-Jun-24 08:17N 40°50' E 029°16'0 0.0
2015-Jun-24 07:29N 40°50' E 029°16'0 0.0
2015-Jun-24 03:23N 40°50' E 029°16'0 0.0
2015-Jun-24 02:17N 40°50' E 029°16'0 0.0
2015-Jun-24 01:17N 40°50' E 029°16'0 0.0
2015-Jun-24 00:29N 40°50' E 029°16'0 0.0
2015-Jun-23 22:29N 40°50' E 029°16'0 0.0
2015-Jun-23 20:29N 40°50' E 029°16'0 0.0
2015-Jun-23 18:47N 40°50' E 029°16'  

Dump ship's entire track history